sensor_id;sensor_type;location;lat;lon;timestamp;temperature;humidity
53422;DHT22;39319;52.944;5.928;2022-09-14T00:02:20;15.50;98.00
53422;DHT22;39319;52.944;5.928;2022-09-14T00:04:45;15.50;98.20
53422;DHT22;39319;52.944;5.928;2022-09-14T00:07:11;15.40;98.30
53422;DHT22;39319;52.944;5.928;2022-09-14T00:09:37;15.40;98.40
53422;DHT22;39319;52.944;5.928;2022-09-14T00:12:02;15.40;98.40
53422;DHT22;39319;52.944;5.928;2022-09-14T00:14:28;15.40;98.50
53422;DHT22;39319;52.944;5.928;2022-09-14T00:16:54;15.40;98.50
53422;DHT22;39319;52.944;5.928;2022-09-14T00:19:24;15.50;98.70
53422;DHT22;39319;52.944;5.928;2022-09-14T00:21:58;15.50;98.80
53422;DHT22;39319;52.944;5.928;2022-09-14T00:24:25;15.30;98.70
53422;DHT22;39319;52.944;5.928;2022-09-14T00:26:52;15.40;98.80
53422;DHT22;39319;52.944;5.928;2022-09-14T00:29:17;15.40;98.80
53422;DHT22;39319;52.944;5.928;2022-09-14T00:31:44;15.40;98.80
53422;DHT22;39319;52.944;5.928;2022-09-14T00:34:13;15.30;98.90
53422;DHT22;39319;52.944;5.928;2022-09-14T00:36:41;15.40;99.10
53422;DHT22;39319;52.944;5.928;2022-09-14T00:39:08;15.40;99.10
53422;DHT22;39319;52.944;5.928;2022-09-14T00:41:36;15.40;99.20
53422;DHT22;39319;52.944;5.928;2022-09-14T00:46:44;15.40;99.30
53422;DHT22;39319;52.944;5.928;2022-09-14T00:49:13;15.40;99.60
53422;DHT22;39319;52.944;5.928;2022-09-14T00:51:44;15.40;99.50
53422;DHT22;39319;52.944;5.928;2022-09-14T00:54:12;15.40;99.40
53422;DHT22;39319;52.944;5.928;2022-09-14T00:56:38;15.40;99.50
53422;DHT22;39319;52.944;5.928;2022-09-14T00:59:17;15.40;99.50
53422;DHT22;39319;52.944;5.928;2022-09-14T01:01:44;15.60;99.70
53422;DHT22;39319;52.944;5.928;2022-09-14T01:04:10;15.50;99.70
53422;DHT22;39319;52.944;5.928;2022-09-14T01:06:44;15.50;99.70
53422;DHT22;39319;52.944;5.928;2022-09-14T01:09:34;15.40;99.80
53422;DHT22;39319;52.944;5.928;2022-09-14T01:17:52;15.40;99.70
53422;DHT22;39319;52.944;5.928;2022-09-14T01:28:53;15.50;99.90
53422;DHT22;39319;52.944;5.928;2022-09-14T01:31:31;15.50;99.90
53422;DHT22;39319;52.944;5.928;2022-09-14T01:34:05;15.60;99.90
53422;DHT22;39319;52.944;5.928;2022-09-14T01:36:35;15.60;99.90
53422;DHT22;39319;52.944;5.928;2022-09-14T01:39:05;15.60;99.90
53422;DHT22;39319;52.944;5.928;2022-09-14T01:41:32;15.80;99.90
53422;DHT22;39319;52.944;5.928;2022-09-14T01:44:14;15.80;99.90
53422;DHT22;39319;52.944;5.928;2022-09-14T01:46:50;15.70;99.90
53422;DHT22;39319;52.944;5.928;2022-09-14T01:49:33;15.80;99.90
53422;DHT22;39319;52.944;5.928;2022-09-14T01:52:10;15.80;99.90
53422;DHT22;39319;52.944;5.928;2022-09-14T01:54:57;15.80;99.90
53422;DHT22;39319;52.944;5.928;2022-09-14T01:57:41;15.90;99.90
53422;DHT22;39319;52.944;5.928;2022-09-14T02:00:11;15.90;99.90
53422;DHT22;39319;52.944;5.928;2022-09-14T02:02:59;15.90;99.90
53422;DHT22;39319;52.944;5.928;2022-09-14T02:05:38;15.80;99.90
53422;DHT22;39319;52.944;5.928;2022-09-14T02:08:05;15.90;99.90
53422;DHT22;39319;52.944;5.928;2022-09-14T02:10:31;16.00;99.90
53422;DHT22;39319;52.944;5.928;2022-09-14T02:12:57;15.90;99.90
53422;DHT22;39319;52.944;5.928;2022-09-14T02:15:23;15.90;99.90
53422;DHT22;39319;52.944;5.928;2022-09-14T02:17:51;15.90;99.90
53422;DHT22;39319;52.944;5.928;2022-09-14T02:20:30;16.00;99.90
53422;DHT22;39319;52.944;5.928;2022-09-14T02:22:57;15.90;99.90
53422;DHT22;39319;52.944;5.928;2022-09-14T02:25:23;15.90;99.90
53422;DHT22;39319;52.944;5.928;2022-09-14T02:27:49;16.00;99.90
53422;DHT22;39319;52.944;5.928;2022-09-14T02:30:17;15.80;99.90
53422;DHT22;39319;52.944;5.928;2022-09-14T02:33:11;15.90;99.90
53422;DHT22;39319;52.944;5.928;2022-09-14T02:35:53;15.80;99.90
53422;DHT22;39319;52.944;5.928;2022-09-14T02:38:28;15.80;99.90
53422;DHT22;39319;52.944;5.928;2022-09-14T02:47:19;16.00;99.90
53422;DHT22;39319;52.944;5.928;2022-09-14T02:49:41;16.00;99.90
53422;DHT22;39319;52.944;5.928;2022-09-14T02:52:18;16.20;99.90
53422;DHT22;39319;52.944;5.928;2022-09-14T02:54:59;15.90;99.90
53422;DHT22;39319;52.944;5.928;2022-09-14T02:57:27;16.00;99.90
53422;DHT22;39319;52.944;5.928;2022-09-14T02:59:53;15.90;99.90
53422;DHT22;39319;52.944;5.928;2022-09-14T03:02:19;15.90;99.90
53422;DHT22;39319;52.944;5.928;2022-09-14T03:04:45;15.90;99.90
53422;DHT22;39319;52.944;5.928;2022-09-14T03:07:11;15.80;99.90
53422;DHT22;39319;52.944;5.928;2022-09-14T03:09:36;15.80;99.90
53422;DHT22;39319;52.944;5.928;2022-09-14T03:12:02;15.90;99.90
53422;DHT22;39319;52.944;5.928;2022-09-14T03:14:28;15.80;99.90
53422;DHT22;39319;52.944;5.928;2022-09-14T03:16:54;15.80;99.90
53422;DHT22;39319;52.944;5.928;2022-09-14T03:19:19;15.70;99.90
53422;DHT22;39319;52.944;5.928;2022-09-14T03:21:45;15.80;99.90
53422;DHT22;39319;52.944;5.928;2022-09-14T03:24:11;15.70;99.90
53422;DHT22;39319;52.944;5.928;2022-09-14T03:26:36;15.80;99.90
53422;DHT22;39319;52.944;5.928;2022-09-14T03:29:04;15.80;99.90
53422;DHT22;39319;52.944;5.928;2022-09-14T03:31:30;15.80;99.90
53422;DHT22;39319;52.944;5.928;2022-09-14T03:33:58;15.80;99.90
53422;DHT22;39319;52.944;5.928;2022-09-14T03:36:26;15.80;99.90
53422;DHT22;39319;52.944;5.928;2022-09-14T03:38:53;15.70;99.90
53422;DHT22;39319;52.944;5.928;2022-09-14T03:41:20;15.70;99.90
53422;DHT22;39319;52.944;5.928;2022-09-14T03:43:47;15.70;99.90
53422;DHT22;39319;52.944;5.928;2022-09-14T03:46:15;15.70;99.90
53422;DHT22;39319;52.944;5.928;2022-09-14T03:48:41;15.70;99.90
53422;DHT22;39319;52.944;5.928;2022-09-14T03:51:09;15.80;99.90
53422;DHT22;39319;52.944;5.928;2022-09-14T03:53:35;15.80;99.90
53422;DHT22;39319;52.944;5.928;2022-09-14T03:56:06;15.80;99.90
53422;DHT22;39319;52.944;5.928;2022-09-14T03:58:32;15.90;99.90
53422;DHT22;39319;52.944;5.928;2022-09-14T04:01:10;15.80;99.90
53422;DHT22;39319;52.944;5.928;2022-09-14T04:03:36;15.90;99.90
53422;DHT22;39319;52.944;5.928;2022-09-14T04:06:05;15.80;99.90
53422;DHT22;39319;52.944;5.928;2022-09-14T04:08:32;15.80;99.90
53422;DHT22;39319;52.944;5.928;2022-09-14T04:10:59;15.90;99.90
53422;DHT22;39319;52.944;5.928;2022-09-14T04:13:25;16.00;99.90
53422;DHT22;39319;52.944;5.928;2022-09-14T04:16:00;15.90;99.90
53422;DHT22;39319;52.944;5.928;2022-09-14T04:18:26;15.90;99.90
53422;DHT22;39319;52.944;5.928;2022-09-14T04:21:00;15.80;99.90
53422;DHT22;39319;52.944;5.928;2022-09-14T04:23:26;15.80;99.90
53422;DHT22;39319;52.944;5.928;2022-09-14T04:25:52;15.90;99.90
53422;DHT22;39319;52.944;5.928;2022-09-14T04:28:19;15.90;99.90
53422;DHT22;39319;52.944;5.928;2022-09-14T04:30:54;15.80;99.90
53422;DHT22;39319;52.944;5.928;2022-09-14T04:33:19;15.90;99.90
53422;DHT22;39319;52.944;5.928;2022-09-14T04:35:45;15.80;99.90
53422;DHT22;39319;52.944;5.928;2022-09-14T04:38:11;16.00;99.90
53422;DHT22;39319;52.944;5.928;2022-09-14T04:40:40;15.90;99.90
53422;DHT22;39319;52.944;5.928;2022-09-14T04:43:06;16.00;99.90
53422;DHT22;39319;52.944;5.928;2022-09-14T04:45:31;15.90;99.90
53422;DHT22;39319;52.944;5.928;2022-09-14T04:47:57;15.90;99.90
53422;DHT22;39319;52.944;5.928;2022-09-14T04:50:23;15.90;99.90
53422;DHT22;39319;52.944;5.928;2022-09-14T04:52:48;15.90;99.90
53422;DHT22;39319;52.944;5.928;2022-09-14T04:55:14;15.90;99.90
53422;DHT22;39319;52.944;5.928;2022-09-14T04:57:39;15.90;99.90
53422;DHT22;39319;52.944;5.928;2022-09-14T05:00:08;15.90;99.90
53422;DHT22;39319;52.944;5.928;2022-09-14T05:02:39;15.80;99.90
53422;DHT22;39319;52.944;5.928;2022-09-14T05:05:05;15.90;99.90
53422;DHT22;39319;52.944;5.928;2022-09-14T05:07:31;15.80;99.90
53422;DHT22;39319;52.944;5.928;2022-09-14T05:09:57;15.80;99.90
53422;DHT22;39319;52.944;5.928;2022-09-14T05:12:22;15.90;99.90
53422;DHT22;39319;52.944;5.928;2022-09-14T05:14:48;16.20;99.90
53422;DHT22;39319;52.944;5.928;2022-09-14T05:17:14;15.90;99.90
53422;DHT22;39319;52.944;5.928;2022-09-14T05:19:39;15.90;99.90
53422;DHT22;39319;52.944;5.928;2022-09-14T05:22:05;15.90;99.90
53422;DHT22;39319;52.944;5.928;2022-09-14T05:24:31;15.90;99.90
53422;DHT22;39319;52.944;5.928;2022-09-14T05:26:56;15.90;99.90
53422;DHT22;39319;52.944;5.928;2022-09-14T05:29:22;15.80;99.90
53422;DHT22;39319;52.944;5.928;2022-09-14T05:31:48;15.90;99.90
53422;DHT22;39319;52.944;5.928;2022-09-14T05:34:13;15.80;99.90
53422;DHT22;39319;52.944;5.928;2022-09-14T05:36:40;15.90;99.90
53422;DHT22;39319;52.944;5.928;2022-09-14T05:39:06;15.90;99.90
53422;DHT22;39319;52.944;5.928;2022-09-14T05:41:32;15.90;99.90
53422;DHT22;39319;52.944;5.928;2022-09-14T05:43:59;16.00;99.90
53422;DHT22;39319;52.944;5.928;2022-09-14T05:46:24;16.00;99.90
53422;DHT22;39319;52.944;5.928;2022-09-14T05:48:50;16.00;99.90
53422;DHT22;39319;52.944;5.928;2022-09-14T05:51:18;16.20;99.90
53422;DHT22;39319;52.944;5.928;2022-09-14T05:53:52;16.10;99.90
53422;DHT22;39319;52.944;5.928;2022-09-14T05:56:19;15.90;99.90
53422;DHT22;39319;52.944;5.928;2022-09-14T05:58:46;16.00;99.90
53422;DHT22;39319;52.944;5.928;2022-09-14T06:01:14;16.00;99.90
53422;DHT22;39319;52.944;5.928;2022-09-14T06:03:41;16.00;99.90
53422;DHT22;39319;52.944;5.928;2022-09-14T06:06:09;16.00;99.90
53422;DHT22;39319;52.944;5.928;2022-09-14T06:08:36;16.10;99.90
53422;DHT22;39319;52.944;5.928;2022-09-14T06:11:13;16.30;99.90
53422;DHT22;39319;52.944;5.928;2022-09-14T06:13:40;16.00;99.90
53422;DHT22;39319;52.944;5.928;2022-09-14T06:16:11;16.10;99.90
53422;DHT22;39319;52.944;5.928;2022-09-14T06:18:38;16.10;99.90
53422;DHT22;39319;52.944;5.928;2022-09-14T06:21:05;16.10;99.90
53422;DHT22;39319;52.944;5.928;2022-09-14T06:23:31;16.20;99.90
53422;DHT22;39319;52.944;5.928;2022-09-14T06:25:59;16.20;99.90
53422;DHT22;39319;52.944;5.928;2022-09-14T06:28:25;16.20;99.90
53422;DHT22;39319;52.944;5.928;2022-09-14T06:30:51;16.30;99.90
53422;DHT22;39319;52.944;5.928;2022-09-14T06:33:17;16.30;99.90
53422;DHT22;39319;52.944;5.928;2022-09-14T06:36:14;16.20;99.90
53422;DHT22;39319;52.944;5.928;2022-09-14T06:38:39;16.50;99.90
53422;DHT22;39319;52.944;5.928;2022-09-14T06:41:07;16.30;99.90
53422;DHT22;39319;52.944;5.928;2022-09-14T06:43:36;16.40;99.90
53422;DHT22;39319;52.944;5.928;2022-09-14T06:46:11;16.40;99.90
53422;DHT22;39319;52.944;5.928;2022-09-14T06:48:42;16.50;99.90
53422;DHT22;39319;52.944;5.928;2022-09-14T06:53:40;16.70;99.90
53422;DHT22;39319;52.944;5.928;2022-09-14T06:56:06;16.60;99.90
53422;DHT22;39319;52.944;5.928;2022-09-14T06:58:33;16.70;99.90
53422;DHT22;39319;52.944;5.928;2022-09-14T07:01:03;16.70;99.90
53422;DHT22;39319;52.944;5.928;2022-09-14T07:03:30;16.80;99.90
53422;DHT22;39319;52.944;5.928;2022-09-14T07:06:07;16.70;99.90
53422;DHT22;39319;52.944;5.928;2022-09-14T07:08:34;16.90;99.90
53422;DHT22;39319;52.944;5.928;2022-09-14T07:11:02;16.90;99.90
53422;DHT22;39319;52.944;5.928;2022-09-14T07:13:29;17.00;99.90
53422;DHT22;39319;52.944;5.928;2022-09-14T07:15:55;17.00;99.90
53422;DHT22;39319;52.944;5.928;2022-09-14T07:18:22;17.10;99.90
53422;DHT22;39319;52.944;5.928;2022-09-14T07:20:54;17.20;99.90
53422;DHT22;39319;52.944;5.928;2022-09-14T07:23:21;17.20;99.90
53422;DHT22;39319;52.944;5.928;2022-09-14T07:25:46;17.20;99.90
53422;DHT22;39319;52.944;5.928;2022-09-14T07:28:12;17.20;99.90
53422;DHT22;39319;52.944;5.928;2022-09-14T07:30:38;17.30;99.90
53422;DHT22;39319;52.944;5.928;2022-09-14T07:33:05;17.30;99.90
53422;DHT22;39319;52.944;5.928;2022-09-14T07:35:31;17.40;99.90
53422;DHT22;39319;52.944;5.928;2022-09-14T07:37:57;17.10;99.90
53422;DHT22;39319;52.944;5.928;2022-09-14T07:40:23;17.50;99.90
53422;DHT22;39319;52.944;5.928;2022-09-14T07:42:52;17.50;99.90
53422;DHT22;39319;52.944;5.928;2022-09-14T07:45:19;17.50;99.90
53422;DHT22;39319;52.944;5.928;2022-09-14T07:47:45;17.60;99.90
53422;DHT22;39319;52.944;5.928;2022-09-14T07:50:11;17.60;99.90
53422;DHT22;39319;52.944;5.928;2022-09-14T07:52:37;17.60;99.90
53422;DHT22;39319;52.944;5.928;2022-09-14T07:55:05;17.70;99.90
53422;DHT22;39319;52.944;5.928;2022-09-14T07:57:31;17.70;99.90
53422;DHT22;39319;52.944;5.928;2022-09-14T07:59:56;17.70;99.90
53422;DHT22;39319;52.944;5.928;2022-09-14T08:02:23;17.80;99.90
53422;DHT22;39319;52.944;5.928;2022-09-14T08:04:49;17.80;99.90
53422;DHT22;39319;52.944;5.928;2022-09-14T08:07:18;17.80;99.70
53422;DHT22;39319;52.944;5.928;2022-09-14T08:09:44;17.90;99.50
53422;DHT22;39319;52.944;5.928;2022-09-14T08:12:12;17.90;99.90
53422;DHT22;39319;52.944;5.928;2022-09-14T08:14:40;17.90;99.90
53422;DHT22;39319;52.944;5.928;2022-09-14T08:17:06;18.00;99.00
53422;DHT22;39319;52.944;5.928;2022-09-14T08:19:32;18.00;98.70
53422;DHT22;39319;52.944;5.928;2022-09-14T08:21:58;18.10;98.30
53422;DHT22;39319;52.944;5.928;2022-09-14T08:24:23;18.20;99.30
53422;DHT22;39319;52.944;5.928;2022-09-14T08:26:49;18.20;98.90
53422;DHT22;39319;52.944;5.928;2022-09-14T08:29:17;18.20;99.10
53422;DHT22;39319;52.944;5.928;2022-09-14T08:31:43;18.20;98.90
53422;DHT22;39319;52.944;5.928;2022-09-14T08:34:12;18.20;98.70
53422;DHT22;39319;52.944;5.928;2022-09-14T08:36:40;18.30;98.70
53422;DHT22;39319;52.944;5.928;2022-09-14T08:39:07;18.40;98.40
53422;DHT22;39319;52.944;5.928;2022-09-14T08:41:45;18.30;98.30
53422;DHT22;39319;52.944;5.928;2022-09-14T08:46:42;18.50;97.60
53422;DHT22;39319;52.944;5.928;2022-09-14T08:49:20;18.40;97.60
53422;DHT22;39319;52.944;5.928;2022-09-14T08:51:49;18.50;97.10
53422;DHT22;39319;52.944;5.928;2022-09-14T08:54:18;18.70;97.30
53422;DHT22;39319;52.944;5.928;2022-09-14T08:56:48;18.60;97.10
53422;DHT22;39319;52.944;5.928;2022-09-14T08:59:32;18.60;97.00
53422;DHT22;39319;52.944;5.928;2022-09-14T09:04:54;18.80;97.30
53422;DHT22;39319;52.944;5.928;2022-09-14T09:07:25;18.80;97.10
53422;DHT22;39319;52.944;5.928;2022-09-14T09:09:55;18.90;96.50
53422;DHT22;39319;52.944;5.928;2022-09-14T09:12:31;18.90;96.60
53422;DHT22;39319;52.944;5.928;2022-09-14T09:15:00;18.90;96.50
53422;DHT22;39319;52.944;5.928;2022-09-14T09:17:35;19.00;96.30
53422;DHT22;39319;52.944;5.928;2022-09-14T09:20:37;19.00;96.10
53422;DHT22;39319;52.944;5.928;2022-09-14T09:23:16;19.10;95.20
53422;DHT22;39319;52.944;5.928;2022-09-14T09:26:00;19.20;94.80
53422;DHT22;39319;52.944;5.928;2022-09-14T09:28:28;19.20;94.80
53422;DHT22;39319;52.944;5.928;2022-09-14T09:30:57;19.40;94.10
53422;DHT22;39319;52.944;5.928;2022-09-14T09:33:25;19.50;94.00
53422;DHT22;39319;52.944;5.928;2022-09-14T09:35:53;19.50;93.60
53422;DHT22;39319;52.944;5.928;2022-09-14T09:38:22;19.60;93.70
53422;DHT22;39319;52.944;5.928;2022-09-14T09:41:17;19.60;93.70
53422;DHT22;39319;52.944;5.928;2022-09-14T09:46:32;19.80;92.70
53422;DHT22;39319;52.944;5.928;2022-09-14T09:49:02;19.90;92.70
53422;DHT22;39319;52.944;5.928;2022-09-14T09:51:32;19.90;92.70
53422;DHT22;39319;52.944;5.928;2022-09-14T09:54:07;19.90;93.10
53422;DHT22;39319;52.944;5.928;2022-09-14T09:57:02;19.90;93.40
53422;DHT22;39319;52.944;5.928;2022-09-14T09:59:34;20.00;93.40
53422;DHT22;39319;52.944;5.928;2022-09-14T10:05:01;19.90;92.90
53422;DHT22;39319;52.944;5.928;2022-09-14T10:07:30;19.80;92.00
53422;DHT22;39319;52.944;5.928;2022-09-14T10:12:30;19.80;92.30
53422;DHT22;39319;52.944;5.928;2022-09-14T10:15:28;19.80;91.50
53422;DHT22;39319;52.944;5.928;2022-09-14T10:20:38;19.80;91.70
53422;DHT22;39319;52.944;5.928;2022-09-14T10:25:50;19.80;92.40
53422;DHT22;39319;52.944;5.928;2022-09-14T10:28:20;19.80;91.50
53422;DHT22;39319;52.944;5.928;2022-09-14T10:31:00;19.90;91.90
53422;DHT22;39319;52.944;5.928;2022-09-14T10:33:28;20.00;92.20
53422;DHT22;39319;52.944;5.928;2022-09-14T10:38:49;20.30;91.00
53422;DHT22;39319;52.944;5.928;2022-09-14T10:44:42;20.60;90.20
53422;DHT22;39319;52.944;5.928;2022-09-14T10:50:11;20.80;90.20
53422;DHT22;39319;52.944;5.928;2022-09-14T10:55:23;20.90;87.60
53422;DHT22;39319;52.944;5.928;2022-09-14T11:23:57;21.10;85.90
53422;DHT22;39319;52.944;5.928;2022-09-14T11:26:38;21.20;86.80
53422;DHT22;39319;52.944;5.928;2022-09-14T11:29:15;21.20;87.30
53422;DHT22;39319;52.944;5.928;2022-09-14T11:34:33;21.30;84.20
53422;DHT22;39319;52.944;5.928;2022-09-14T11:37:10;21.30;86.10
53422;DHT22;39319;52.944;5.928;2022-09-14T11:42:31;21.20;86.20
53422;DHT22;39319;52.944;5.928;2022-09-14T11:45:14;21.20;85.00
53422;DHT22;39319;52.944;5.928;2022-09-14T11:47:46;21.20;85.90
53422;DHT22;39319;52.944;5.928;2022-09-14T11:50:22;21.20;85.30
53422;DHT22;39319;52.944;5.928;2022-09-14T11:53:08;21.30;85.30
53422;DHT22;39319;52.944;5.928;2022-09-14T11:55:34;21.30;86.00
53422;DHT22;39319;52.944;5.928;2022-09-14T11:58:05;21.50;85.20
53422;DHT22;39319;52.944;5.928;2022-09-14T12:05:39;22.20;82.50
53422;DHT22;39319;52.944;5.928;2022-09-14T12:08:38;22.40;81.70
53422;DHT22;39319;52.944;5.928;2022-09-14T12:13:33;22.90;79.90
53422;DHT22;39319;52.944;5.928;2022-09-14T12:16:07;23.20;80.60
53422;DHT22;39319;52.944;5.928;2022-09-14T12:18:37;23.50;78.30
53422;DHT22;39319;52.944;5.928;2022-09-14T12:36:08;24.80;74.30
53422;DHT22;39319;52.944;5.928;2022-09-14T12:57:05;24.20;75.70
53422;DHT22;39319;52.944;5.928;2022-09-14T13:04:45;23.60;77.60
53422;DHT22;39319;52.944;5.928;2022-09-14T13:07:14;23.50;78.30
53422;DHT22;39319;52.944;5.928;2022-09-14T13:09:54;23.40;79.00
53422;DHT22;39319;52.944;5.928;2022-09-14T13:12:26;23.30;77.50
53422;DHT22;39319;52.944;5.928;2022-09-14T13:14:59;23.30;78.60
53422;DHT22;39319;52.944;5.928;2022-09-14T13:17:26;23.20;78.40
53422;DHT22;39319;52.944;5.928;2022-09-14T13:19:57;23.20;77.80
53422;DHT22;39319;52.944;5.928;2022-09-14T13:22:25;23.10;78.10
53422;DHT22;39319;52.944;5.928;2022-09-14T13:24:54;23.10;78.60
53422;DHT22;39319;52.944;5.928;2022-09-14T13:29:47;22.90;78.90
53422;DHT22;39319;52.944;5.928;2022-09-14T13:32:19;22.90;78.60
53422;DHT22;39319;52.944;5.928;2022-09-14T13:34:45;22.90;78.70
53422;DHT22;39319;52.944;5.928;2022-09-14T13:37:15;23.00;78.40
53422;DHT22;39319;52.944;5.928;2022-09-14T13:39:48;23.00;78.10
53422;DHT22;39319;52.944;5.928;2022-09-14T13:42:15;23.00;79.20
53422;DHT22;39319;52.944;5.928;2022-09-14T13:44:43;23.00;78.70
53422;DHT22;39319;52.944;5.928;2022-09-14T13:47:18;23.10;78.50
53422;DHT22;39319;52.944;5.928;2022-09-14T13:49:45;23.20;78.40
53422;DHT22;39319;52.944;5.928;2022-09-14T13:57:38;23.50;77.60
53422;DHT22;39319;52.944;5.928;2022-09-14T14:00:20;23.60;76.40
53422;DHT22;39319;52.944;5.928;2022-09-14T14:02:51;23.60;76.50
53422;DHT22;39319;52.944;5.928;2022-09-14T14:05:31;23.60;76.00
53422;DHT22;39319;52.944;5.928;2022-09-14T14:07:59;23.50;75.90
53422;DHT22;39319;52.944;5.928;2022-09-14T14:10:32;23.50;75.20
53422;DHT22;39319;52.944;5.928;2022-09-14T14:12:59;23.50;75.00
53422;DHT22;39319;52.944;5.928;2022-09-14T14:17:52;23.50;76.10
53422;DHT22;39319;52.944;5.928;2022-09-14T14:20:36;23.70;76.60
53422;DHT22;39319;52.944;5.928;2022-09-14T14:25:44;24.00;74.90
53422;DHT22;39319;52.944;5.928;2022-09-14T14:28:23;24.20;74.10
53422;DHT22;39319;52.944;5.928;2022-09-14T14:30:49;24.30;73.00
53422;DHT22;39319;52.944;5.928;2022-09-14T14:33:16;24.40;72.60
53422;DHT22;39319;52.944;5.928;2022-09-14T14:35:46;24.50;72.00
53422;DHT22;39319;52.944;5.928;2022-09-14T14:38:15;24.50;72.90
53422;DHT22;39319;52.944;5.928;2022-09-14T14:40:41;24.40;72.00
53422;DHT22;39319;52.944;5.928;2022-09-14T14:43:09;24.40;73.00
53422;DHT22;39319;52.944;5.928;2022-09-14T14:45:35;24.40;72.50
53422;DHT22;39319;52.944;5.928;2022-09-14T14:48:02;24.50;71.80
53422;DHT22;39319;52.944;5.928;2022-09-14T14:50:30;24.70;71.60
53422;DHT22;39319;52.944;5.928;2022-09-14T14:52:58;24.80;72.10
53422;DHT22;39319;52.944;5.928;2022-09-14T14:55:25;24.80;71.50
53422;DHT22;39319;52.944;5.928;2022-09-14T14:57:52;24.90;72.00
53422;DHT22;39319;52.944;5.928;2022-09-14T15:00:21;24.90;72.60
53422;DHT22;39319;52.944;5.928;2022-09-14T15:02:47;24.90;70.10
53422;DHT22;39319;52.944;5.928;2022-09-14T15:05:13;25.00;70.80
53422;DHT22;39319;52.944;5.928;2022-09-14T15:07:39;25.00;70.30
53422;DHT22;39319;52.944;5.928;2022-09-14T15:10:06;25.10;70.70
53422;DHT22;39319;52.944;5.928;2022-09-14T15:12:33;25.10;70.10
53422;DHT22;39319;52.944;5.928;2022-09-14T15:14:59;25.10;70.50
53422;DHT22;39319;52.944;5.928;2022-09-14T15:17:25;25.00;70.70
53422;DHT22;39319;52.944;5.928;2022-09-14T15:19:50;25.00;70.20
53422;DHT22;39319;52.944;5.928;2022-09-14T15:22:17;25.00;70.30
53422;DHT22;39319;52.944;5.928;2022-09-14T15:24:43;25.10;69.40
53422;DHT22;39319;52.944;5.928;2022-09-14T15:27:09;25.00;69.30
53422;DHT22;39319;52.944;5.928;2022-09-14T15:29:35;24.70;70.60
53422;DHT22;39319;52.944;5.928;2022-09-14T15:32:01;24.50;70.90
53422;DHT22;39319;52.944;5.928;2022-09-14T15:34:26;24.30;70.40
53422;DHT22;39319;52.944;5.928;2022-09-14T15:36:52;24.20;71.00
53422;DHT22;39319;52.944;5.928;2022-09-14T15:39:24;24.00;71.40
53422;DHT22;39319;52.944;5.928;2022-09-14T15:41:50;23.80;72.50
53422;DHT22;39319;52.944;5.928;2022-09-14T15:44:16;23.60;72.60
53422;DHT22;39319;52.944;5.928;2022-09-14T15:46:43;23.50;72.30
53422;DHT22;39319;52.944;5.928;2022-09-14T15:49:15;23.30;72.20
53422;DHT22;39319;52.944;5.928;2022-09-14T15:51:46;23.20;72.30
53422;DHT22;39319;52.944;5.928;2022-09-14T15:54:13;23.00;72.50
53422;DHT22;39319;52.944;5.928;2022-09-14T15:56:39;22.90;73.00
53422;DHT22;39319;52.944;5.928;2022-09-14T15:59:05;22.90;73.30
53422;DHT22;39319;52.944;5.928;2022-09-14T16:01:31;22.80;73.60
53422;DHT22;39319;52.944;5.928;2022-09-14T16:04:05;22.70;74.00
53422;DHT22;39319;52.944;5.928;2022-09-14T16:06:31;22.60;74.90
53422;DHT22;39319;52.944;5.928;2022-09-14T16:09:00;22.50;75.70
53422;DHT22;39319;52.944;5.928;2022-09-14T16:11:25;22.40;76.00
53422;DHT22;39319;52.944;5.928;2022-09-14T16:13:51;22.30;77.20
53422;DHT22;39319;52.944;5.928;2022-09-14T16:16:18;22.30;77.60
53422;DHT22;39319;52.944;5.928;2022-09-14T16:18:45;22.20;77.00
53422;DHT22;39319;52.944;5.928;2022-09-14T16:21:25;22.20;76.80
53422;DHT22;39319;52.944;5.928;2022-09-14T16:23:56;22.10;76.80
53422;DHT22;39319;52.944;5.928;2022-09-14T16:26:28;22.10;77.40
53422;DHT22;39319;52.944;5.928;2022-09-14T16:28:54;22.00;77.60
53422;DHT22;39319;52.944;5.928;2022-09-14T16:31:23;22.00;77.30
53422;DHT22;39319;52.944;5.928;2022-09-14T16:33:52;21.90;76.70
53422;DHT22;39319;52.944;5.928;2022-09-14T16:36:22;21.90;76.60
53422;DHT22;39319;52.944;5.928;2022-09-14T16:38:51;21.80;76.00
53422;DHT22;39319;52.944;5.928;2022-09-14T16:41:17;21.80;76.40
53422;DHT22;39319;52.944;5.928;2022-09-14T16:43:43;21.70;77.70
53422;DHT22;39319;52.944;5.928;2022-09-14T16:46:11;21.60;77.60
53422;DHT22;39319;52.944;5.928;2022-09-14T16:48:43;21.60;77.50
53422;DHT22;39319;52.944;5.928;2022-09-14T16:51:10;21.50;77.60
53422;DHT22;39319;52.944;5.928;2022-09-14T16:53:38;21.50;77.40
53422;DHT22;39319;52.944;5.928;2022-09-14T16:56:10;21.40;77.20
53422;DHT22;39319;52.944;5.928;2022-09-14T16:58:37;21.40;77.30
53422;DHT22;39319;52.944;5.928;2022-09-14T17:01:12;21.40;77.10
53422;DHT22;39319;52.944;5.928;2022-09-14T17:03:38;21.30;77.60
53422;DHT22;39319;52.944;5.928;2022-09-14T17:06:10;21.30;78.00
53422;DHT22;39319;52.944;5.928;2022-09-14T17:08:36;21.20;78.50
53422;DHT22;39319;52.944;5.928;2022-09-14T17:11:03;21.20;78.70
53422;DHT22;39319;52.944;5.928;2022-09-14T17:13:29;21.10;78.50
53422;DHT22;39319;52.944;5.928;2022-09-14T17:16:10;21.10;79.10
53422;DHT22;39319;52.944;5.928;2022-09-14T17:18:38;21.00;79.50
53422;DHT22;39319;52.944;5.928;2022-09-14T17:21:08;21.00;79.60
53422;DHT22;39319;52.944;5.928;2022-09-14T17:23:34;20.90;79.90
53422;DHT22;39319;52.944;5.928;2022-09-14T17:26:02;20.90;80.10
53422;DHT22;39319;52.944;5.928;2022-09-14T17:28:30;20.90;80.50
53422;DHT22;39319;52.944;5.928;2022-09-14T17:30:59;20.80;80.40
53422;DHT22;39319;52.944;5.928;2022-09-14T17:33:25;20.70;80.50
53422;DHT22;39319;52.944;5.928;2022-09-14T17:35:56;20.70;81.30
53422;DHT22;39319;52.944;5.928;2022-09-14T17:38:24;20.60;81.20
53422;DHT22;39319;52.944;5.928;2022-09-14T17:40:50;20.60;81.20
53422;DHT22;39319;52.944;5.928;2022-09-14T17:43:16;20.50;81.80
53422;DHT22;39319;52.944;5.928;2022-09-14T17:45:53;20.50;81.20
53422;DHT22;39319;52.944;5.928;2022-09-14T17:48:20;20.40;81.60
53422;DHT22;39319;52.944;5.928;2022-09-14T17:50:46;20.30;81.70
53422;DHT22;39319;52.944;5.928;2022-09-14T17:53:12;20.30;82.10
53422;DHT22;39319;52.944;5.928;2022-09-14T17:55:38;20.30;82.40
53422;DHT22;39319;52.944;5.928;2022-09-14T17:58:04;20.30;82.50
53422;DHT22;39319;52.944;5.928;2022-09-14T18:00:30;20.20;82.70
53422;DHT22;39319;52.944;5.928;2022-09-14T18:02:55;20.10;82.90
53422;DHT22;39319;52.944;5.928;2022-09-14T18:05:21;20.10;82.60
53422;DHT22;39319;52.944;5.928;2022-09-14T18:07:47;20.00;83.40
53422;DHT22;39319;52.944;5.928;2022-09-14T18:10:13;20.00;83.70
53422;DHT22;39319;52.944;5.928;2022-09-14T18:12:43;19.90;83.80